Time;durP1;ratioP1;P1;durP2;ratioP2;P2;SDS_P1;SDS_P2;PMS_P1;PMS_P2;Temp;Humidity;BMP_temperature;BMP_pressure;BME280_temperature;BME280_humidity;BME280_pressure;Samples;Min_cycle;Max_cycle;Signal;HPM_P1;HPM_P2
2023/04/15 00:00:27;;;;;;;1.35;0.70;;;24.70;44.70;;;;;;5041148;28;20075;-69
2023/04/15 00:02:53;;;;;;;0.70;0.50;;;24.70;44.70;;;;;;5038040;28;20022;-69
2023/04/15 00:05:19;;;;;;;0.70;0.60;;;24.70;45.20;;;;;;5041303;28;20021;-68
2023/04/15 00:07:46;;;;;;;1.48;0.85;;;24.70;44.70;;;;;;5041530;28;20398;-69
2023/04/15 00:10:13;;;;;;;1.08;0.70;;;24.70;44.70;;;;;;5042314;28;20519;-70
2023/04/15 00:12:39;;;;;;;0.95;0.70;;;24.70;44.70;;;;;;5038390;28;20090;-69
2023/04/15 00:15:05;;;;;;;0.85;0.70;;;24.70;44.70;;;;;;5037580;28;20057;-68
2023/04/15 00:17:31;;;;;;;0.60;0.50;;;24.70;44.70;;;;;;5038770;28;20086;-69
2023/04/15 00:19:58;;;;;;;1.05;0.70;;;24.70;44.70;;;;;;5039011;28;20036;-69
2023/04/15 00:22:25;;;;;;;0.88;0.60;;;24.70;44.70;;;;;;5039625;28;20116;-69
2023/04/15 00:24:52;;;;;;;0.90;0.70;;;24.70;44.70;;;;;;5040401;28;20473;-69
2023/04/15 00:27:18;;;;;;;0.65;0.60;;;24.70;44.70;;;;;;5037210;28;20044;-69
2023/04/15 00:29:43;;;;;;;0.88;0.70;;;24.70;44.70;;;;;;5036789;28;20049;-69
2023/04/15 00:32:09;;;;;;;0.77;0.70;;;24.70;44.70;;;;;;5040437;28;20060;-69
2023/04/15 00:34:35;;;;;;;1.02;0.70;;;24.70;44.70;;;;;;5041141;28;20032;-69
2023/04/15 00:37:01;;;;;;;1.30;0.80;;;24.70;44.60;;;;;;5044176;28;20026;-69
2023/04/15 00:39:27;;;;;;;1.15;0.70;;;24.70;44.70;;;;;;5046001;28;20389;-69
2023/04/15 00:41:53;;;;;;;1.05;0.68;;;24.70;44.70;;;;;;5044523;28;20539;-68
2023/04/15 00:44:19;;;;;;;0.60;0.50;;;24.70;44.60;;;;;;5042206;28;20041;-69
2023/04/15 00:46:45;;;;;;;0.82;0.60;;;24.60;44.60;;;;;;5040602;28;20037;-68
2023/04/15 00:49:12;;;;;;;1.10;0.80;;;24.70;44.70;;;;;;5041033;28;20021;-68
2023/04/15 00:51:37;;;;;;;1.65;0.70;;;24.70;44.70;;;;;;5041202;28;20460;-69
2023/04/15 00:54:04;;;;;;;0.63;0.60;;;24.60;44.70;;;;;;5041974;28;20052;-69
2023/04/15 00:56:33;;;;;;;0.85;0.52;;;24.60;44.60;;;;;;5040886;28;20488;-69
2023/04/15 00:59:00;;;;;;;0.85;0.60;;;24.60;44.70;;;;;;5044669;28;20060;-69
2023/04/15 01:01:27;;;;;;;1.27;0.60;;;24.50;44.70;;;;;;5039279;28;20105;-69
2023/04/15 01:03:56;;;;;;;0.98;0.60;;;24.50;44.70;;;;;;5039108;28;20026;-69
2023/04/15 01:06:22;;;;;;;1.00;0.70;;;24.50;44.70;;;;;;5047223;28;20025;-69
2023/04/15 01:08:47;;;;;;;0.80;0.65;;;24.50;44.70;;;;;;5041791;28;20037;-69
2023/04/15 01:11:14;;;;;;;1.15;0.60;;;24.50;44.70;;;;;;5045078;28;20031;-68
2023/04/15 01:13:40;;;;;;;0.90;0.68;;;24.40;44.70;;;;;;5044017;28;20022;-69
2023/04/15 01:16:07;;;;;;;1.25;0.70;;;24.40;44.70;;;;;;5040665;28;20072;-69
2023/04/15 01:18:34;;;;;;;0.80;0.60;;;24.40;44.70;;;;;;5038176;28;20025;-69
2023/04/15 01:21:01;;;;;;;0.60;0.50;;;24.40;44.80;;;;;;5040702;28;20530;-68
2023/04/15 01:23:27;;;;;;;0.70;0.60;;;24.40;44.80;;;;;;5048579;28;20025;-67
2023/04/15 01:25:53;;;;;;;0.50;0.50;;;24.30;44.70;;;;;;5041563;28;20477;-69
2023/04/15 01:28:19;;;;;;;0.43;0.40;;;24.30;44.80;;;;;;5040480;28;20094;-70
2023/04/15 01:30:45;;;;;;;1.20;0.60;;;24.30;44.80;;;;;;5041405;28;20389;-69
2023/04/15 01:33:11;;;;;;;0.60;0.50;;;24.30;44.80;;;;;;5040844;28;20032;-69
2023/04/15 01:35:37;;;;;;;0.60;0.60;;;24.30;44.80;;;;;;5041100;28;20032;-69
2023/04/15 01:38:07;;;;;;;0.90;0.50;;;24.20;44.80;;;;;;5040420;28;20082;-69
2023/04/15 01:40:34;;;;;;;0.75;0.60;;;24.20;44.80;;;;;;5047230;28;20584;-69
2023/04/15 01:43:01;;;;;;;0.88;0.55;;;24.20;44.90;;;;;;5044993;28;20029;-69
2023/04/15 01:45:27;;;;;;;0.57;0.57;;;24.20;44.90;;;;;;5041467;28;20024;-69
2023/04/15 01:47:52;;;;;;;0.70;0.60;;;24.10;44.90;;;;;;5040464;28;20102;-69
2023/04/15 01:50:19;;;;;;;1.20;0.70;;;24.10;44.90;;;;;;5040481;28;20485;-68
2023/04/15 01:52:45;;;;;;;0.77;0.60;;;24.10;44.90;;;;;;5040850;28;20104;-69
2023/04/15 01:55:17;;;;;;;2.03;0.80;;;24.10;45.20;;;;;;5042729;28;20100;-69
2023/04/15 01:57:42;;;;;;;0.73;0.60;;;24.10;45.00;;;;;;5041884;28;20041;-69
2023/04/15 02:00:08;;;;;;;0.95;0.60;;;24.10;45.00;;;;;;5043647;28;20025;-69
2023/04/15 02:02:34;;;;;;;0.70;0.60;;;24.00;45.00;;;;;;5036867;28;20040;-70
2023/04/15 02:05:00;;;;;;;0.60;0.60;;;24.00;45.10;;;;;;5036971;28;20428;-69
2023/04/15 02:07:27;;;;;;;0.70;0.68;;;24.00;45.10;;;;;;5038989;28;20041;-69
2023/04/15 02:09:53;;;;;;;0.82;0.55;;;24.00;45.10;;;;;;5038917;28;20033;-69
2023/04/15 02:12:18;;;;;;;0.80;0.60;;;23.90;45.10;;;;;;5043694;28;20025;-69
2023/04/15 02:14:44;;;;;;;0.77;0.57;;;23.90;45.10;;;;;;5039630;28;20075;-70
2023/04/15 02:17:10;;;;;;;0.50;0.50;;;23.90;45.20;;;;;;5040508;28;20052;-69
2023/04/15 02:19:36;;;;;;;0.75;0.55;;;23.90;45.20;;;;;;5041266;28;20511;-69
2023/04/15 02:22:02;;;;;;;0.50;0.50;;;23.90;45.20;;;;;;5036727;28;20102;-69
2023/04/15 02:24:29;;;;;;;0.55;0.55;;;23.90;45.20;;;;;;5047633;28;20094;-69
2023/04/15 02:26:55;;;;;;;0.55;0.55;;;23.80;45.20;;;;;;5040339;28;20436;-69
2023/04/15 02:29:22;;;;;;;1.05;0.63;;;23.80;45.20;;;;;;5055127;28;20055;-67
2023/04/15 02:31:48;;;;;;;0.60;0.60;;;23.80;45.20;;;;;;5041237;28;20025;-69
2023/04/15 02:34:14;;;;;;;0.77;0.57;;;23.70;45.20;;;;;;5040524;28;20453;-68
2023/04/15 02:36:39;;;;;;;0.55;0.55;;;23.70;45.30;;;;;;5039426;28;20082;-69
2023/04/15 02:39:05;;;;;;;0.65;0.50;;;23.70;45.30;;;;;;5037772;28;20038;-69
2023/04/15 02:41:31;;;;;;;0.52;0.50;;;23.70;45.30;;;;;;5041111;28;20031;-69
2023/04/15 02:43:57;;;;;;;0.80;0.50;;;23.70;45.30;;;;;;5042160;28;20111;-69
2023/04/15 02:46:23;;;;;;;0.93;0.50;;;23.70;45.30;;;;;;5038407;28;20037;-69
2023/04/15 02:48:49;;;;;;;0.68;0.63;;;23.60;45.30;;;;;;5037625;28;20071;-69
2023/04/15 02:51:19;;;;;;;0.55;0.40;;;23.60;45.30;;;;;;5041225;28;20028;-69
2023/04/15 02:53:47;;;;;;;0.63;0.60;;;23.60;45.40;;;;;;5041819;28;20137;-70
2023/04/15 02:56:14;;;;;;;0.40;0.40;;;23.60;45.40;;;;;;5039505;28;20144;-69
2023/04/15 02:58:40;;;;;;;0.65;0.40;;;23.60;45.40;;;;;;5041239;28;20595;-69
2023/04/15 03:01:07;;;;;;;0.90;0.60;;;23.60;45.40;;;;;;5039585;28;20600;-68
2023/04/15 03:03:33;;;;;;;0.60;0.50;;;23.50;45.40;;;;;;5036212;28;20025;-69
2023/04/15 03:05:59;;;;;;;0.50;0.50;;;23.50;45.40;;;;;;5038330;28;20044;-69
2023/04/15 03:08:25;;;;;;;0.70;0.60;;;23.50;45.40;;;;;;5040432;28;20461;-68
2023/04/15 03:10:51;;;;;;;0.50;0.50;;;23.50;45.40;;;;;;5039334;28;20128;-69
2023/04/15 03:13:17;;;;;;;0.60;0.50;;;23.50;45.40;;;;;;5037015;28;20017;-70
2023/04/15 03:15:45;;;;;;;1.35;0.55;;;23.50;45.40;;;;;;5039528;28;20068;-69
2023/04/15 03:18:11;;;;;;;0.70;0.50;;;23.50;45.50;;;;;;5038505;28;20036;-69
2023/04/15 03:20:36;;;;;;;0.55;0.50;;;23.40;45.40;;;;;;5041926;28;20026;-69
2023/04/15 03:23:02;;;;;;;0.47;0.47;;;23.40;45.50;;;;;;5040634;28;20044;-68
2023/04/15 03:25:28;;;;;;;0.82;0.50;;;23.40;45.50;;;;;;5042651;28;20029;-69
2023/04/15 03:27:53;;;;;;;0.47;0.43;;;23.40;45.50;;;;;;5039712;28;20358;-68
2023/04/15 03:30:19;;;;;;;0.90;0.85;;;23.40;45.50;;;;;;5039160;28;20053;-68
2023/04/15 03:32:44;;;;;;;0.60;0.40;;;23.40;45.50;;;;;;5039065;28;20389;-68
2023/04/15 03:35:10;;;;;;;0.55;0.55;;;23.40;45.50;;;;;;5036137;28;20024;-68
2023/04/15 03:37:36;;;;;;;0.60;0.60;;;23.30;45.50;;;;;;5042481;28;20026;-69
2023/04/15 03:40:02;;;;;;;0.40;0.40;;;23.40;45.60;;;;;;5038624;28;20276;-69
2023/04/15 03:42:27;;;;;;;0.50;0.50;;;23.30;45.50;;;;;;5038462;28;20060;-70
2023/04/15 03:44:53;;;;;;;0.65;0.55;;;23.30;45.60;;;;;;5037314;28;20025;-69
2023/04/15 03:47:18;;;;;;;0.70;0.50;;;23.30;45.60;;;;;;5037799;28;20445;-69
2023/04/15 03:49:44;;;;;;;0.63;0.55;;;23.30;45.60;;;;;;5038526;28;20032;-69
2023/04/15 03:52:10;;;;;;;0.40;0.40;;;23.30;45.70;;;;;;5038578;28;20469;-69
2023/04/15 03:54:35;;;;;;;0.52;0.52;;;23.20;45.60;;;;;;5039159;28;20064;-69
2023/04/15 03:57:01;;;;;;;0.60;0.50;;;23.20;45.60;;;;;;5037809;28;20033;-68
2023/04/15 03:59:26;;;;;;;0.65;0.55;;;23.20;45.60;;;;;;5036361;28;20513;-68
2023/04/15 04:01:52;;;;;;;0.63;0.50;;;23.20;45.70;;;;;;5039623;28;20029;-67
2023/04/15 04:04:17;;;;;;;0.75;0.50;;;23.20;45.70;;;;;;5035868;28;20025;-68
2023/04/15 04:06:43;;;;;;;0.50;0.50;;;23.20;45.70;;;;;;5036990;28;20781;-68
2023/04/15 04:09:09;;;;;;;0.80;0.50;;;23.20;46.30;;;;;;5037073;28;20026;-68
2023/04/15 04:11:36;;;;;;;0.50;0.50;;;23.20;46.30;;;;;;5038061;28;20033;-69
2023/04/15 04:14:02;;;;;;;0.47;0.47;;;23.10;45.70;;;;;;5040037;28;20075;-68
2023/04/15 04:16:27;;;;;;;0.98;0.73;;;23.10;45.70;;;;;;5039007;28;20030;-69
2023/04/15 04:18:53;;;;;;;0.63;0.52;;;23.10;45.70;;;;;;5035807;28;20096;-68
2023/04/15 04:21:19;;;;;;;1.02;0.55;;;23.10;45.80;;;;;;5038624;28;20111;-69
2023/04/15 04:23:45;;;;;;;0.70;0.50;;;23.10;45.80;;;;;;5038820;28;20032;-69
2023/04/15 04:26:11;;;;;;;0.60;0.60;;;23.10;45.80;;;;;;5046120;28;20025;-69
2023/04/15 04:28:39;;;;;;;0.88;0.60;;;23.10;45.80;;;;;;5036344;28;20033;-69
2023/04/15 04:31:06;;;;;;;0.80;0.50;;;23.00;45.80;;;;;;5038666;28;20025;-68
2023/04/15 04:33:32;;;;;;;0.65;0.60;;;23.00;46.40;;;;;;5039187;28;20122;-68
2023/04/15 04:35:57;;;;;;;0.50;0.50;;;23.00;45.90;;;;;;5036937;28;20124;-68
2023/04/15 04:38:23;;;;;;;0.75;0.52;;;23.00;45.90;;;;;;5039718;28;20037;-68
2023/04/15 04:40:49;;;;;;;0.60;0.60;;;23.00;45.90;;;;;;5038649;28;20026;-68
2023/04/15 04:43:14;;;;;;;0.65;0.60;;;23.00;45.90;;;;;;5039036;28;20104;-67
2023/04/15 04:45:40;;;;;;;0.65;0.50;;;23.00;45.90;;;;;;5039043;28;20116;-67
2023/04/15 04:48:07;;;;;;;0.77;0.57;;;23.00;45.90;;;;;;5036790;28;20031;-68
2023/04/15 04:50:34;;;;;;;1.35;0.60;;;23.00;46.00;;;;;;5040556;28;20053;-67
2023/04/15 04:53:00;;;;;;;1.05;0.55;;;22.90;45.90;;;;;;5038984;28;20030;-67
2023/04/15 04:55:26;;;;;;;0.98;0.60;;;22.90;45.90;;;;;;5039048;28;20029;-68
2023/04/15 04:57:51;;;;;;;0.65;0.60;;;22.90;45.90;;;;;;5037274;28;20049;-67
2023/04/15 05:00:18;;;;;;;0.85;0.50;;;22.90;46.00;;;;;;5038707;28;20032;-67
2023/04/15 05:02:44;;;;;;;1.48;0.70;;;22.90;45.90;;;;;;5037975;28;20030;-68
2023/04/15 05:05:10;;;;;;;1.00;0.60;;;22.90;46.00;;;;;;5037317;28;20192;-68
2023/04/15 05:07:37;;;;;;;0.95;0.70;;;22.90;45.90;;;;;;5040290;28;20041;-67
2023/04/15 05:10:03;;;;;;;0.63;0.50;;;22.90;46.00;;;;;;5035441;28;20044;-68
2023/04/15 05:12:28;;;;;;;0.57;0.57;;;22.90;46.00;;;;;;5040081;28;20087;-67
2023/04/15 05:14:54;;;;;;;0.88;0.60;;;22.90;46.00;;;;;;5037999;28;20346;-68
2023/04/15 05:17:19;;;;;;;1.45;0.50;;;22.80;45.90;;;;;;5039151;28;20026;-67
2023/04/15 05:19:45;;;;;;;1.02;0.70;;;22.80;45.90;;;;;;5041276;28;20037;-67
2023/04/15 05:22:11;;;;;;;0.90;0.60;;;22.80;45.90;;;;;;5039616;28;20469;-68
2023/04/15 05:24:36;;;;;;;1.35;0.70;;;22.80;45.90;;;;;;5047809;28;20061;-68
2023/04/15 05:27:02;;;;;;;1.55;0.80;;;22.80;45.90;;;;;;5042322;28;20037;-67
2023/04/15 05:29:28;;;;;;;1.02;0.75;;;22.80;45.90;;;;;;5039482;28;20030;-67
2023/04/15 05:31:54;;;;;;;0.90;0.65;;;22.80;45.90;;;;;;5043312;28;20033;-67
2023/04/15 05:34:19;;;;;;;1.15;0.68;;;22.80;45.90;;;;;;5039317;28;20028;-67
2023/04/15 05:36:45;;;;;;;1.05;0.73;;;22.80;45.90;;;;;;5039154;28;20038;-68
2023/04/15 05:39:11;;;;;;;1.30;0.70;;;22.70;45.90;;;;;;5039656;28;20030;-67
2023/04/15 05:41:36;;;;;;;0.60;0.60;;;22.70;45.90;;;;;;5042771;28;20549;-67
2023/04/15 05:44:02;;;;;;;0.98;0.65;;;22.70;45.90;;;;;;5039126;28;20029;-67
2023/04/15 05:46:28;;;;;;;1.23;0.70;;;22.70;45.90;;;;;;5038789;28;20033;-67
2023/04/15 05:48:53;;;;;;;1.00;0.70;;;22.70;45.90;;;;;;5041864;28;20026;-68
2023/04/15 05:51:19;;;;;;;1.73;0.73;;;22.70;45.90;;;;;;5042106;28;20025;-68
2023/04/15 05:53:45;;;;;;;1.17;0.73;;;22.70;45.90;;;;;;5041251;28;20013;-67
2023/04/15 05:56:11;;;;;;;1.08;0.60;;;22.70;45.90;;;;;;5041395;28;20400;-68
2023/04/15 05:58:36;;;;;;;0.80;0.60;;;22.70;45.90;;;;;;5040506;28;20041;-67
2023/04/15 06:01:02;;;;;;;0.60;0.60;;;22.70;45.90;;;;;;5043703;28;20410;-67
2023/04/15 06:03:28;;;;;;;1.05;0.70;;;22.60;45.80;;;;;;5040189;28;20433;-68
2023/04/15 06:05:54;;;;;;;0.73;0.65;;;22.70;45.90;;;;;;5040150;28;20098;-68
2023/04/15 06:08:20;;;;;;;1.02;0.75;;;22.60;45.80;;;;;;5039901;28;20511;-67
2023/04/15 06:10:46;;;;;;;1.20;0.70;;;22.60;45.80;;;;;;5041584;28;20451;-67
2023/04/15 06:13:12;;;;;;;1.08;0.65;;;22.60;46.30;;;;;;5039885;28;20021;-67
2023/04/15 06:15:37;;;;;;;0.93;0.73;;;22.60;45.70;;;;;;5039302;28;20455;-67
2023/04/15 06:18:04;;;;;;;1.08;0.80;;;22.60;45.70;;;;;;5040272;28;20105;-67
2023/04/15 06:20:29;;;;;;;1.08;0.80;;;22.60;45.70;;;;;;5039302;28;20021;-67
2023/04/15 06:22:56;;;;;;;1.02;0.73;;;22.60;45.80;;;;;;5041298;28;20273;-67
2023/04/15 06:25:21;;;;;;;0.70;0.60;;;22.60;45.80;;;;;;5040734;28;20095;-68
2023/04/15 06:27:47;;;;;;;1.38;0.80;;;22.60;45.80;;;;;;5037967;28;20350;-68
2023/04/15 06:30:13;;;;;;;1.10;0.70;;;22.60;45.80;;;;;;5039626;28;20021;-68
2023/04/15 06:32:39;;;;;;;1.25;0.85;;;22.60;45.80;;;;;;5040804;28;20018;-68
2023/04/15 06:35:05;;;;;;;0.85;0.60;;;22.60;45.80;;;;;;5040740;28;20022;-69
2023/04/15 06:37:31;;;;;;;1.52;0.70;;;22.50;45.80;;;;;;5040106;28;20029;-68
2023/04/15 06:39:57;;;;;;;1.00;0.70;;;22.60;45.80;;;;;;5040703;28;20033;-68
2023/04/15 06:42:22;;;;;;;2.22;0.80;;;22.50;45.80;;;;;;5039395;28;20095;-68
2023/04/15 06:44:48;;;;;;;1.20;0.70;;;22.50;45.70;;;;;;5041065;28;20104;-68
2023/04/15 06:47:14;;;;;;;1.73;0.80;;;22.50;45.70;;;;;;5040085;28;20068;-68
2023/04/15 06:49:40;;;;;;;1.10;0.90;;;22.50;45.70;;;;;;5038429;28;20365;-69
2023/04/15 06:52:06;;;;;;;1.20;0.80;;;22.50;45.70;;;;;;5040377;28;20025;-68
2023/04/15 06:54:31;;;;;;;1.20;0.90;;;22.50;45.70;;;;;;5037282;28;20397;-69
2023/04/15 06:56:57;;;;;;;2.22;1.10;;;22.50;45.70;;;;;;5039760;28;20021;-68
2023/04/15 06:59:23;;;;;;;1.90;1.00;;;22.50;45.70;;;;;;5038028;28;20029;-68
2023/04/15 07:01:48;;;;;;;1.25;0.93;;;22.50;45.70;;;;;;5039194;28;20104;-68
2023/04/15 07:04:14;;;;;;;1.20;0.90;;;22.50;45.70;;;;;;5035565;28;20028;-68
2023/04/15 07:06:40;;;;;;;1.00;0.80;;;22.50;45.70;;;;;;5037273;28;20158;-68
2023/04/15 07:09:06;;;;;;;1.63;0.90;;;22.50;45.70;;;;;;5038465;28;20048;-69
2023/04/15 07:11:32;;;;;;;1.15;0.90;;;22.50;45.80;;;;;;5040973;28;20045;-68
2023/04/15 07:13:57;;;;;;;1.50;0.90;;;22.50;45.70;;;;;;5041676;28;20037;-65
2023/04/15 07:16:23;;;;;;;2.28;1.00;;;22.40;45.70;;;;;;5037983;28;20037;-69
2023/04/15 07:18:49;;;;;;;1.52;0.82;;;22.50;45.70;;;;;;5042684;28;20030;-68
2023/04/15 07:21:14;;;;;;;1.15;0.90;;;22.50;45.70;;;;;;5038855;28;20041;-68
2023/04/15 07:23:41;;;;;;;1.75;1.00;;;22.40;45.70;;;;;;5043189;28;20029;-68
2023/04/15 07:26:07;;;;;;;1.23;1.00;;;22.50;45.70;;;;;;5041655;28;20025;-68
2023/04/15 07:28:33;;;;;;;1.58;1.00;;;22.50;45.70;;;;;;5040886;28;20070;-68
2023/04/15 07:30:58;;;;;;;1.67;0.90;;;22.40;45.60;;;;;;5038227;28;20358;-69
2023/04/15 07:33:25;;;;;;;1.73;1.10;;;22.40;45.50;;;;;;5037682;28;20029;-68
2023/04/15 07:35:50;;;;;;;1.50;1.10;;;22.40;45.30;;;;;;5039695;28;20029;-68
2023/04/15 07:38:16;;;;;;;1.55;1.00;;;22.40;45.20;;;;;;5037278;28;20346;-68
2023/04/15 07:40:41;;;;;;;2.13;1.20;;;22.40;45.30;;;;;;5037856;28;20029;-68
2023/04/15 07:43:07;;;;;;;1.70;1.20;;;22.40;45.20;;;;;;5039431;28;20026;-68
2023/04/15 07:45:34;;;;;;;2.30;1.30;;;22.40;45.30;;;;;;5039417;28;20136;-68
2023/04/15 07:48:00;;;;;;;1.77;1.20;;;22.40;45.30;;;;;;5040588;28;20444;-68
2023/04/15 07:50:26;;;;;;;2.00;1.30;;;22.40;45.40;;;;;;5042036;28;20017;-69
2023/04/15 07:52:52;;;;;;;2.08;1.25;;;22.40;45.30;;;;;;5037577;28;20033;-68
2023/04/15 07:55:20;;;;;;;1.60;1.10;;;22.40;45.40;;;;;;5040667;28;20037;-68
2023/04/15 07:57:46;;;;;;;2.08;1.20;;;22.40;45.40;;;;;;5038698;28;20025;-68
2023/04/15 08:00:12;;;;;;;1.83;1.20;;;22.40;45.40;;;;;;5036482;28;20105;-68
2023/04/15 08:02:38;;;;;;;3.17;1.40;;;22.40;45.40;;;;;;5035011;28;20482;-68
2023/04/15 08:05:04;;;;;;;2.63;1.40;;;22.40;45.50;;;;;;5037887;28;20113;-68
2023/04/15 08:07:30;;;;;;;2.55;1.40;;;22.40;45.50;;;;;;5037705;28;20025;-69
2023/04/15 08:09:56;;;;;;;3.35;1.70;;;22.40;45.50;;;;;;5039792;28;20026;-69
2023/04/15 08:12:22;;;;;;;2.53;1.50;;;22.40;45.50;;;;;;5039209;28;20188;-68
2023/04/15 08:14:52;;;;;;;3.00;1.65;;;22.30;45.50;;;;;;5036330;28;20026;-68
2023/04/15 08:17:17;;;;;;;;;;;22.30;45.50;;;;;;5037234;28;20029;-68
2023/04/15 08:19:43;;;;;;;2.65;1.40;;;22.30;45.50;;;;;;5036022;28;19912;-68
2023/04/15 08:22:11;;;;;;;3.45;1.90;;;22.30;45.60;;;;;;5037325;28;20087;-68
2023/04/15 08:24:37;;;;;;;2.53;1.55;;;22.30;45.60;;;;;;5036957;28;20060;-68
2023/04/15 08:27:04;;;;;;;3.13;1.77;;;22.30;45.60;;;;;;5037264;28;20037;-68
2023/04/15 08:29:33;;;;;;;2.42;1.52;;;22.30;45.60;;;;;;5044217;28;20474;-68
2023/04/15 08:32:00;;;;;;;2.95;1.48;;;22.30;45.60;;;;;;5040302;28;20053;-68
2023/04/15 08:34:26;;;;;;;4.03;1.70;;;22.30;45.60;;;;;;5038673;28;20031;-68
2023/04/15 08:36:52;;;;;;;3.30;1.73;;;22.30;45.60;;;;;;5036870;28;20029;-68
2023/04/15 08:39:18;;;;;;;2.78;1.50;;;22.30;45.60;;;;;;5037176;28;20092;-68
2023/04/15 08:41:53;;;;;;;3.53;1.70;;;22.30;45.70;;;;;;5039904;28;20571;-68
2023/04/15 08:44:19;;;;;;;3.10;1.60;;;22.20;45.60;;;;;;5038358;28;20512;-68
2023/04/15 08:46:46;;;;;;;2.88;1.50;;;22.30;45.70;;;;;;5040467;28;20024;-68
2023/04/15 08:49:12;;;;;;;3.88;1.73;;;22.30;45.70;;;;;;5038283;28;20024;-68
2023/04/15 08:51:39;;;;;;;2.97;1.65;;;22.30;45.70;;;;;;5040190;28;20026;-68
2023/04/15 08:54:07;;;;;;;2.88;1.73;;;22.30;45.70;;;;;;5039160;28;20021;-68
2023/04/15 08:56:34;;;;;;;4.05;1.80;;;22.20;45.60;;;;;;5040829;28;20408;-69
2023/04/15 08:59:00;;;;;;;3.05;1.55;;;22.20;45.60;;;;;;5043489;28;20147;-68
2023/04/15 09:01:26;;;;;;;2.20;1.38;;;22.20;45.60;;;;;;5044817;28;20028;-68
2023/04/15 09:03:55;;;;;;;2.92;1.60;;;22.20;45.60;;;;;;5043622;28;20036;-69
2023/04/15 09:06:22;;;;;;;2.67;1.60;;;22.20;45.60;;;;;;5041165;28;20465;-68
2023/04/15 09:08:49;;;;;;;3.05;1.67;;;22.20;45.70;;;;;;5042713;28;20032;-68
2023/04/15 09:11:16;;;;;;;2.95;1.60;;;22.20;45.70;;;;;;5040073;28;20448;-68
2023/04/15 09:13:42;;;;;;;2.95;1.70;;;22.20;45.70;;;;;;5039443;28;20528;-68
2023/04/15 09:16:08;;;;;;;3.17;1.70;;;22.20;45.70;;;;;;5042641;28;20036;-68
2023/04/15 09:18:35;;;;;;;2.67;1.45;;;22.20;45.70;;;;;;5042346;28;20021;-69
2023/04/15 09:21:12;;;;;;;3.00;1.50;;;22.20;46.20;;;;;;5037004;28;20033;-68
2023/04/15 09:23:40;;;;;;;2.80;1.60;;;22.20;45.70;;;;;;5041476;28;20359;-69
2023/04/15 09:26:07;;;;;;;2.25;1.40;;;22.20;46.20;;;;;;5048579;28;20048;-68
2023/04/15 09:28:39;;;;;;;2.58;1.70;;;22.20;45.70;;;;;;5043576;28;20113;-68
2023/04/15 09:31:05;;;;;;;3.65;1.77;;;22.20;45.70;;;;;;5039867;28;20025;-68
2023/04/15 09:33:31;;;;;;;3.47;1.98;;;22.20;45.70;;;;;;5054789;28;20018;-69
2023/04/15 09:36:01;;;;;;;2.58;1.45;;;22.20;45.70;;;;;;5038423;28;20025;-68
2023/04/15 09:38:27;;;;;;;3.03;1.70;;;22.20;45.70;;;;;;5040849;28;20025;-68
2023/04/15 09:40:53;;;;;;;3.63;1.80;;;22.20;46.20;;;;;;5041171;28;20374;-69
2023/04/15 09:43:19;;;;;;;3.40;1.55;;;22.10;45.70;;;;;;5040941;28;20393;-69
2023/04/15 09:45:52;;;;;;;2.85;1.60;;;22.20;45.70;;;;;;5039432;28;20026;-69
2023/04/15 09:48:20;;;;;;;4.25;1.80;;;22.10;45.60;;;;;;5038256;28;20037;-69
2023/04/15 09:50:47;;;;;;;2.72;1.70;;;22.20;45.70;;;;;;5039529;28;20047;-69
2023/04/15 09:53:18;;;;;;;2.90;1.70;;;22.20;45.70;;;;;;5048082;28;20040;-69
2023/04/15 09:55:53;;;;;;;3.13;1.67;;;22.20;45.70;;;;;;5040693;28;20017;-69
2023/04/15 09:58:23;;;;;;;2.65;1.60;;;22.10;45.70;;;;;;5042629;28;20026;-69
2023/04/15 10:00:51;;;;;;;4.07;1.77;;;22.10;45.70;;;;;;5040307;28;20017;-68
2023/04/15 10:03:25;;;;;;;3.35;1.70;;;22.10;45.70;;;;;;5040370;28;20469;-69
2023/04/15 10:05:52;;;;;;;2.85;1.63;;;22.10;45.70;;;;;;5040449;28;20025;-69
2023/04/15 10:08:20;;;;;;;4.35;1.58;;;22.10;45.70;;;;;;5041096;28;20116;-68
2023/04/15 10:10:47;;;;;;;2.85;1.58;;;22.10;45.70;;;;;;5038598;28;20611;-69
2023/04/15 10:13:35;;;;;;;2.65;1.65;;;22.10;45.70;;;;;;5043056;28;20469;-69
2023/04/15 10:16:11;;;;;;;5.15;2.10;;;22.10;45.70;;;;;;5042155;28;20032;-69
2023/04/15 10:18:43;;;;;;;4.05;1.70;;;22.10;45.70;;;;;;5040604;28;20384;-68
2023/04/15 10:21:09;;;;;;;3.10;1.80;;;22.10;45.80;;;;;;5038279;28;20104;-69
2023/04/15 10:23:35;;;;;;;2.47;1.80;;;22.20;46.00;;;;;;5040083;28;20076;-69
2023/04/15 10:26:03;;;;;;;2.13;1.40;;;22.20;46.00;;;;;;5040930;28;20155;-69
2023/04/15 10:28:28;;;;;;;3.10;1.77;;;22.20;46.00;;;;;;5038109;28;20033;-69
2023/04/15 10:30:56;;;;;;;3.03;1.80;;;22.30;46.00;;;;;;5041363;28;20044;-69
2023/04/15 10:33:24;;;;;;;4.15;1.70;;;22.30;45.80;;;;;;5040227;28;20025;-68
2023/04/15 10:35:51;;;;;;;2.90;1.60;;;22.40;45.80;;;;;;5038892;28;20481;-69
2023/04/15 10:38:37;;;;;;;2.88;1.63;;;22.50;45.70;;;;;;5037581;28;20395;-69
2023/04/15 10:41:24;;;;;;;3.03;1.83;;;22.60;45.50;;;;;;5038867;28;20025;-69
2023/04/15 10:43:53;;;;;;;3.85;2.10;;;22.70;45.40;;;;;;5040506;28;20037;-69
2023/04/15 10:46:35;;;;;;;3.83;1.80;;;22.80;45.20;;;;;;5046605;28;20022;-69
2023/04/15 10:49:07;;;;;;;4.45;2.17;;;22.90;45.10;;;;;;5038814;28;20045;-68
2023/04/15 10:51:33;;;;;;;3.00;1.80;;;23.00;44.80;;;;;;5036152;28;20045;-69
2023/04/15 10:53:59;;;;;;;3.78;2.08;;;23.00;45.40;;;;;;5047748;28;20055;-69
2023/04/15 10:56:25;;;;;;;3.13;1.88;;;23.10;44.80;;;;;;5041586;28;20468;-69
2023/04/15 10:58:50;;;;;;;3.22;2.00;;;23.20;44.70;;;;;;5041533;28;20481;-69
2023/04/15 11:01:20;;;;;;;3.28;2.10;;;23.30;44.60;;;;;;5040788;28;20033;-70
2023/04/15 11:03:46;;;;;;;;;;;23.40;44.40;;;;;;5040464;28;20028;-70
2023/04/15 11:06:12;;;;;;;4.03;2.00;;;23.40;44.40;;;;;;5034759;28;19908;-69
2023/04/15 11:08:58;;;;;;;3.17;2.05;;;23.50;44.20;;;;;;5042361;28;20070;-70
2023/04/15 11:12:01;;;;;;;4.10;1.73;;;23.60;44.10;;;;;;5041807;28;20029;-70
2023/04/15 11:14:27;;;;;;;2.83;1.70;;;23.70;44.00;;;;;;5071230;28;20543;-70
2023/04/15 11:16:52;;;;;;;4.00;1.88;;;23.80;43.80;;;;;;5041322;28;20037;-70
2023/04/15 11:19:18;;;;;;;2.65;1.60;;;23.90;43.70;;;;;;5041901;28;20568;-70
2023/04/15 11:21:44;;;;;;;3.63;1.77;;;24.00;43.50;;;;;;5038642;28;20033;-70
2023/04/15 11:24:09;;;;;;;2.50;1.60;;;24.10;43.50;;;;;;5039431;28;20025;-70
2023/04/15 11:26:35;;;;;;;2.88;1.77;;;24.20;43.50;;;;;;5039391;28;20029;-70
2023/04/15 11:29:00;;;;;;;2.95;1.65;;;24.30;43.30;;;;;;5039719;28;20047;-69
2023/04/15 11:31:27;;;;;;;2.92;1.60;;;24.30;43.10;;;;;;5040476;28;20029;-70
2023/04/15 11:33:58;;;;;;;3.67;1.80;;;24.40;43.00;;;;;;5040114;28;20469;-70
2023/04/15 11:36:28;;;;;;;3.13;1.80;;;24.50;42.90;;;;;;5040747;28;20057;-69
2023/04/15 11:38:55;;;;;;;2.80;1.67;;;24.50;42.80;;;;;;5038189;28;20033;-69
2023/04/15 11:41:21;;;;;;;3.60;1.85;;;24.50;42.80;;;;;;5039212;28;20115;-68
2023/04/15 11:43:47;;;;;;;2.58;1.52;;;24.40;42.70;;;;;;5038053;28;20499;-67
2023/04/15 11:46:13;;;;;;;4.00;1.80;;;24.40;42.70;;;;;;5039067;28;20021;-67
2023/04/15 11:48:43;;;;;;;3.17;1.80;;;24.40;42.70;;;;;;5038853;28;20049;-66
2023/04/15 11:51:10;;;;;;;2.22;1.50;;;24.40;42.70;;;;;;5038300;28;20520;-66
2023/04/15 11:53:48;;;;;;;2.85;1.70;;;24.40;42.80;;;;;;5040429;28;20101;-66
2023/04/15 11:56:19;;;;;;;3.33;1.70;;;24.40;42.70;;;;;;5038782;28;20044;-67
2023/04/15 11:58:46;;;;;;;3.28;1.70;;;24.40;42.80;;;;;;5037547;28;20029;-66
2023/04/15 12:01:12;;;;;;;3.45;1.75;;;24.30;42.70;;;;;;5038379;28;20341;-67
2023/04/15 12:03:48;;;;;;;3.42;1.80;;;24.30;42.80;;;;;;5039701;28;20022;-67
2023/04/15 12:06:23;;;;;;;2.90;1.77;;;24.30;42.80;;;;;;5038516;28;20079;-68
2023/04/15 12:08:48;;;;;;;3.47;1.80;;;24.40;42.80;;;;;;5039363;28;20107;-68
2023/04/15 12:11:18;;;;;;;2.70;1.58;;;24.50;42.70;;;;;;5041113;28;20111;-67
2023/04/15 12:13:47;;;;;;;;;;;24.50;42.60;;;;;;5038376;28;20033;-68
2023/04/15 12:16:16;;;;;;;3.03;1.70;;;24.60;42.60;;;;;;5036795;28;19909;-68
2023/04/15 12:18:44;;;;;;;;;;;24.70;42.50;;;;;;5038941;28;20481;-66
2023/04/15 12:21:10;;;;;;;3.17;1.77;;;24.70;42.50;;;;;;5038386;28;19909;-66
2023/04/15 12:23:56;;;;;;;3.20;1.80;;;24.80;42.30;;;;;;5039626;28;20026;-67
2023/04/15 12:26:27;;;;;;;3.00;1.77;;;24.90;42.30;;;;;;5041772;28;20036;-67
2023/04/15 12:29:00;;;;;;;2.47;1.50;;;25.00;42.10;;;;;;5044335;28;20111;-67
2023/04/15 12:31:26;;;;;;;3.47;1.58;;;25.10;42.10;;;;;;5041900;28;20021;-67
2023/04/15 12:33:54;;;;;;;2.40;1.60;;;25.10;42.00;;;;;;5041152;28;20396;-66
2023/04/15 12:36:20;;;;;;;2.03;1.45;;;25.20;41.80;;;;;;5040190;28;20071;-67
2023/04/15 12:38:45;;;;;;;2.65;1.70;;;25.20;41.70;;;;;;5043672;28;20033;-66
2023/04/15 12:41:11;;;;;;;2.60;1.50;;;25.30;41.70;;;;;;5041987;28;20032;-66
2023/04/15 12:43:37;;;;;;;2.78;1.58;;;25.20;41.50;;;;;;5041928;28;20436;-67
2023/04/15 12:46:03;;;;;;;2.90;1.50;;;25.30;41.60;;;;;;5041873;28;20068;-66